Time;durP1;ratioP1;P1;durP2;ratioP2;P2;SDS_P1;SDS_P2;PMS_P1;PMS_P2;Temp;Humidity;BMP_temperature;BMP_pressure;BME280_temperature;BME280_humidity;BME280_pressure;Samples;Min_cycle;Max_cycle;Signal;HPM_P1;HPM_P2
2022/08/23 00:01:01;;;;;;;10.57;6.10;;;;;;;;;;5022843;28;20045;-59
2022/08/23 00:03:28;;;;;;;12.00;6.38;;;;;;;;;;5021199;28;20041;-61
2022/08/23 00:05:55;;;;;;;7.75;5.80;;;;;;;;;;5022789;28;20045;-61
2022/08/23 00:08:21;;;;;;;11.13;5.93;;;;;;;;;;5020996;28;20087;-61
2022/08/23 00:10:48;;;;;;;9.68;5.63;;;;;;;;;;5022161;28;20041;-61
2022/08/23 00:13:14;;;;;;;7.57;5.43;;;;;;;;;;5022968;28;20127;-61
2022/08/23 00:15:41;;;;;;;8.00;5.32;;;;;;;;;;5023795;28;20120;-61
2022/08/23 00:18:07;;;;;;;9.45;6.03;;;;;;;;;;5025177;28;20053;-61
2022/08/23 00:20:34;;;;;;;8.23;5.78;;;;;;;;;;5023209;28;20065;-61
2022/08/23 00:23:00;;;;;;;8.75;5.40;;;;;;;;;;5024171;28;20046;-61
2022/08/23 00:25:27;;;;;;;10.52;5.85;;;;;;;;;;5023694;28;20042;-61
2022/08/23 00:27:54;;;;;;;9.27;6.22;;;;;;;;;;5024035;28;20548;-60
2022/08/23 00:30:20;;;;;;;12.82;5.93;;;;;;;;;;5023863;28;20166;-60
2022/08/23 00:32:47;;;;;;;10.75;6.10;;;;;;;;;;5023947;28;20686;-61
2022/08/23 00:35:14;;;;;;;9.77;5.88;;;;;;;;;;5036228;28;20038;-60
2022/08/23 00:37:41;;;;;;;9.27;6.10;;;;;;;;;;5024040;28;20045;-61
2022/08/23 00:40:09;;;;;;;8.90;5.68;;;;;;;;;;5023698;28;20117;-61
2022/08/23 00:48:25;;;;;;;8.20;5.93;;;;;;;;;;5022466;28;20148;-61
2022/08/23 00:50:55;;;;;;;9.95;5.75;;;;;;;;;;5023564;28;20044;-61
2022/08/23 00:53:24;;;;;;;9.27;6.32;;;;;;;;;;5021896;28;20045;-62
2022/08/23 00:56:02;;;;;;;12.07;6.28;;;;;;;;;;5023794;28;20058;-61
2022/08/23 00:58:29;;;;;;;10.68;6.22;;;;;;;;;;5035003;28;20133;-61
2022/08/23 01:00:58;;;;;;;9.95;6.70;;;;;;;;;;5022792;28;20133;-61
2022/08/23 01:03:26;;;;;;;11.48;6.45;;;;;;;;;;5023237;28;20048;-61
2022/08/23 01:06:12;;;;;;;10.18;6.43;;;;;;;;;;5024162;28;20056;-61
2022/08/23 01:08:39;;;;;;;10.52;6.13;;;;;;;;;;5022369;28;20060;-61
2022/08/23 01:11:08;;;;;;;12.00;6.30;;;;;;;;;;5021962;28;20041;-62
2022/08/23 01:13:41;;;;;;;14.45;6.53;;;;;;;;;;5021694;28;20065;-61
2022/08/23 01:16:11;;;;;;;10.38;6.85;;;;;;;;;;5023899;28;20062;-61
2022/08/23 01:18:38;;;;;;;12.88;6.97;;;;;;;;;;5022340;28;20471;-60
2022/08/23 01:21:24;;;;;;;12.93;6.93;;;;;;;;;;5022737;28;21764;-59
2022/08/23 01:23:58;;;;;;;13.30;6.03;;;;;;;;;;5022294;28;20053;-60
2022/08/23 01:26:25;;;;;;;12.15;6.68;;;;;;;;;;5022251;28;20112;-64
2022/08/23 01:28:53;;;;;;;15.20;6.70;;;;;;;;;;5025509;28;20037;-60
2022/08/23 01:31:20;;;;;;;16.60;6.72;;;;;;;;;;5025223;28;20053;-61
2022/08/23 01:33:49;;;;;;;10.55;6.30;;;;;;;;;;5023537;28;20041;-64
2022/08/23 01:36:17;;;;;;;10.45;5.93;;;;;;;;;;5023864;28;20041;-61
2022/08/23 01:38:43;;;;;;;11.75;6.53;;;;;;;;;;5022042;28;20115;-62
2022/08/23 01:41:10;;;;;;;18.70;6.28;;;;;;;;;;5026718;28;20053;-62
2022/08/23 01:43:36;;;;;;;9.77;6.15;;;;;;;;;;5033252;28;20052;-64
2022/08/23 01:46:07;;;;;;;13.02;8.07;;;;;;;;;;5024750;28;20041;-62
2022/08/23 01:48:34;;;;;;;12.43;7.80;;;;;;;;;;5024892;28;20037;-63
2022/08/23 01:51:00;;;;;;;15.50;7.97;;;;;;;;;;5023383;28;20045;-62
2022/08/23 01:53:27;;;;;;;10.68;6.20;;;;;;;;;;5023056;28;20039;-58
2022/08/23 01:55:53;;;;;;;14.32;6.82;;;;;;;;;;5022749;28;20124;-60
2022/08/23 01:58:20;;;;;;;11.98;7.13;;;;;;;;;;5022592;28;20080;-61
2022/08/23 02:00:47;;;;;;;12.90;7.45;;;;;;;;;;5023880;28;20033;-61
2022/08/23 02:03:14;;;;;;;11.20;6.95;;;;;;;;;;5023050;28;20045;-60
2022/08/23 02:05:41;;;;;;;13.45;6.88;;;;;;;;;;5022975;28;20502;-60
2022/08/23 02:10:54;;;;;;;12.07;6.70;;;;;;;;;;5041295;28;20854;-60
2022/08/23 02:13:20;;;;;;;10.70;6.72;;;;;;;;;;5042098;28;20036;-61
2022/08/23 02:15:50;;;;;;;11.80;7.07;;;;;;;;;;5042740;28;20049;-63
2022/08/23 02:18:18;;;;;;;10.43;7.38;;;;;;;;;;5041625;28;20060;-63
2022/08/23 02:20:45;;;;;;;12.80;7.45;;;;;;;;;;5042354;28;20044;-62
2022/08/23 02:23:12;;;;;;;11.65;7.43;;;;;;;;;;5042371;28;20060;-62
2022/08/23 02:25:39;;;;;;;15.48;7.72;;;;;;;;;;5041028;28;20048;-64
2022/08/23 02:28:05;;;;;;;10.35;6.68;;;;;;;;;;5055810;28;20413;-60
2022/08/23 02:30:32;;;;;;;15.40;7.05;;;;;;;;;;5040816;28;20037;-60
2022/08/23 02:32:59;;;;;;;10.13;6.20;;;;;;;;;;5042460;28;20571;-60
2022/08/23 02:35:26;;;;;;;12.40;7.00;;;;;;;;;;5041062;28;20041;-59
2022/08/23 02:37:52;;;;;;;15.63;6.50;;;;;;;;;;5041693;28;20056;-60
2022/08/23 02:40:19;;;;;;;13.32;6.72;;;;;;;;;;5042252;28;20417;-59
2022/08/23 02:42:46;;;;;;;9.95;6.53;;;;;;;;;;5022008;28;20052;-59
2022/08/23 02:45:13;;;;;;;12.43;6.35;;;;;;;;;;5022748;28;20045;-59
2022/08/23 02:47:40;;;;;;;12.93;6.00;;;;;;;;;;5021732;28;20044;-60
2022/08/23 02:50:07;;;;;;;10.48;6.32;;;;;;;;;;5021036;28;20041;-59
2022/08/23 02:52:35;;;;;;;14.98;6.40;;;;;;;;;;5020269;28;20139;-59
2022/08/23 02:55:02;;;;;;;9.65;6.18;;;;;;;;;;5021174;28;20055;-59
2022/08/23 02:57:28;;;;;;;10.55;6.40;;;;;;;;;;5019665;28;20438;-62
2022/08/23 02:59:56;;;;;;;14.30;6.43;;;;;;;;;;5015776;28;20069;-58
2022/08/23 03:02:23;;;;;;;11.00;6.57;;;;;;;;;;5021591;28;20033;-58
2022/08/23 03:04:50;;;;;;;12.13;7.65;;;;;;;;;;5020305;28;20037;-60
2022/08/23 03:07:17;;;;;;;12.45;7.28;;;;;;;;;;5021534;28;20125;-61
2022/08/23 03:09:43;;;;;;;11.75;7.38;;;;;;;;;;5022877;28;20042;-59
2022/08/23 03:12:10;;;;;;;16.08;6.68;;;;;;;;;;5023422;28;20033;-59
2022/08/23 03:14:37;;;;;;;15.23;7.22;;;;;;;;;;5023221;28;20571;-59
2022/08/23 03:17:04;;;;;;;15.30;7.63;;;;;;;;;;5023305;28;20072;-59
2022/08/23 03:19:31;;;;;;;11.27;7.40;;;;;;;;;;5022006;28;20544;-58
2022/08/23 03:22:02;;;;;;;13.52;8.35;;;;;;;;;;5022533;28;20044;-58
2022/08/23 03:24:29;;;;;;;16.35;8.73;;;;;;;;;;5023349;28;20199;-58
2022/08/23 03:26:56;;;;;;;13.60;8.32;;;;;;;;;;5021104;28;20481;-60
2022/08/23 03:29:24;;;;;;;18.80;7.82;;;;;;;;;;5020348;28;20056;-59
2022/08/23 03:31:50;;;;;;;16.27;8.82;;;;;;;;;;5022044;28;20432;-57
2022/08/23 03:34:17;;;;;;;13.07;8.43;;;;;;;;;;5022504;28;20041;-57
2022/08/23 03:36:43;;;;;;;12.65;8.02;;;;;;;;;;5020642;28;20112;-58
2022/08/23 03:39:10;;;;;;;14.18;8.30;;;;;;;;;;5022893;28;20049;-63
2022/08/23 03:41:37;;;;;;;16.35;8.45;;;;;;;;;;5017946;28;20041;-62
2022/08/23 03:44:03;;;;;;;16.67;9.80;;;;;;;;;;5024085;28;20136;-59
2022/08/23 03:46:31;;;;;;;12.90;8.18;;;;;;;;;;5025546;28;20038;-59
2022/08/23 03:48:58;;;;;;;17.48;8.25;;;;;;;;;;5026688;28;20593;-61
2022/08/23 03:51:26;;;;;;;19.55;9.00;;;;;;;;;;5023484;28;20068;-61
2022/08/23 03:53:53;;;;;;;15.90;8.32;;;;;;;;;;5024738;28;20045;-61
2022/08/23 03:56:26;;;;;;;20.52;8.70;;;;;;;;;;5026837;28;20732;-61
2022/08/23 03:58:52;;;;;;;;;;;;;;;;;;5025178;28;20611;-61
2022/08/23 04:01:19;;;;;;;14.57;8.38;;;;;;;;;;5025265;28;19967;-61
2022/08/23 04:03:48;;;;;;;17.13;9.82;;;;;;;;;;5025140;28;20110;-61
2022/08/23 04:06:16;;;;;;;15.85;9.07;;;;;;;;;;5025178;28;20124;-61
2022/08/23 04:08:43;;;;;;;13.52;9.10;;;;;;;;;;5023901;28;20037;-61
2022/08/23 04:11:11;;;;;;;14.60;8.85;;;;;;;;;;5026000;28;20140;-61
2022/08/23 04:13:38;;;;;;;15.32;9.10;;;;;;;;;;5023986;28;20092;-61
2022/08/23 04:16:05;;;;;;;14.68;8.52;;;;;;;;;;5025672;28;20064;-60
2022/08/23 04:18:32;;;;;;;16.10;9.93;;;;;;;;;;5023362;28;20053;-60
2022/08/23 04:21:01;;;;;;;15.55;9.07;;;;;;;;;;5025034;28;20054;-60
2022/08/23 04:23:28;;;;;;;17.73;9.60;;;;;;;;;;5022536;28;20044;-60
2022/08/23 04:25:55;;;;;;;17.90;9.38;;;;;;;;;;5023797;28;20041;-60
2022/08/23 04:28:22;;;;;;;20.33;9.13;;;;;;;;;;5025693;28;20038;-60
2022/08/23 04:30:49;;;;;;;16.88;8.73;;;;;;;;;;5026478;28;20474;-60
2022/08/23 04:33:16;;;;;;;8.20;4.75;;;;;;;;;;5024364;28;20033;-60
2022/08/23 04:35:43;;;;;;;6.50;3.42;;;;;;;;;;5023966;28;20052;-61
2022/08/23 04:38:10;;;;;;;8.23;2.35;;;;;;;;;;5024043;28;20045;-61
2022/08/23 04:43:22;;;;;;;7.03;2.60;;;;;;;;;;5025104;28;20041;-61
2022/08/23 04:45:48;;;;;;;6.13;1.92;;;;;;;;;;5025241;28;20163;-61
2022/08/23 04:48:15;;;;;;;6.70;1.77;;;;;;;;;;5023162;28;20102;-62
2022/08/23 04:50:42;;;;;;;5.18;1.80;;;;;;;;;;5025708;28;20044;-61
2022/08/23 04:53:08;;;;;;;4.80;1.80;;;;;;;;;;5025558;28;20053;-61
2022/08/23 04:55:35;;;;;;;6.90;2.22;;;;;;;;;;5024918;28;20833;-61
2022/08/23 04:58:02;;;;;;;3.88;1.70;;;;;;;;;;5024690;28;20045;-61
2022/08/23 05:00:28;;;;;;;3.72;1.73;;;;;;;;;;5024791;28;20053;-61
2022/08/23 05:02:55;;;;;;;6.30;1.65;;;;;;;;;;5023598;28;20029;-61
2022/08/23 05:05:21;;;;;;;5.20;1.90;;;;;;;;;;5023179;28;21691;-61
2022/08/23 05:07:48;;;;;;;7.13;2.17;;;;;;;;;;5040256;28;20117;-64
2022/08/23 05:10:16;;;;;;;11.98;2.20;;;;;;;;;;5023329;28;20041;-63
2022/08/23 05:12:43;;;;;;;10.18;2.10;;;;;;;;;;5022440;28;20037;-63
2022/08/23 05:15:10;;;;;;;8.35;2.45;;;;;;;;;;5021400;28;20950;-64
2022/08/23 05:17:37;;;;;;;7.03;2.63;;;;;;;;;;5021943;28;20045;-63
2022/08/23 05:20:05;;;;;;;11.25;2.90;;;;;;;;;;5022922;28;20030;-63
2022/08/23 05:22:37;;;;;;;8.50;2.83;;;;;;;;;;5037694;28;20034;-64
2022/08/23 05:25:04;;;;;;;9.50;3.35;;;;;;;;;;5023122;28;20044;-65
2022/08/23 05:27:31;;;;;;;12.63;3.30;;;;;;;;;;5023701;28;20398;-65
2022/08/23 05:29:58;;;;;;;8.70;2.90;;;;;;;;;;5023185;28;20771;-66
2022/08/23 05:32:24;;;;;;;5.90;2.80;;;;;;;;;;5022326;28;20135;-67
2022/08/23 05:34:51;;;;;;;9.07;2.50;;;;;;;;;;5022005;28;20409;-66
2022/08/23 05:37:18;;;;;;;9.50;2.40;;;;;;;;;;5025014;28;20045;-66
2022/08/23 05:39:44;;;;;;;7.00;2.80;;;;;;;;;;5022737;28;20048;-65
2022/08/23 05:42:12;;;;;;;7.82;2.40;;;;;;;;;;5024333;28;20045;-65
2022/08/23 05:44:39;;;;;;;5.88;2.35;;;;;;;;;;5023006;28;20060;-65
2022/08/23 05:47:07;;;;;;;8.10;2.70;;;;;;;;;;5025743;28;21474;-63
2022/08/23 05:49:35;;;;;;;5.43;2.30;;;;;;;;;;5022898;28;20044;-64
2022/08/23 05:52:05;;;;;;;5.13;2.35;;;;;;;;;;5023129;28;20042;-64
2022/08/23 05:54:32;;;;;;;6.70;2.40;;;;;;;;;;5024617;28;20042;-65
2022/08/23 05:56:58;;;;;;;6.38;2.63;;;;;;;;;;5020470;28;20468;-64
2022/08/23 05:59:25;;;;;;;7.32;2.50;;;;;;;;;;5022470;28;20037;-64
2022/08/23 06:01:52;;;;;;;7.70;2.30;;;;;;;;;;5023129;28;20520;-64
2022/08/23 06:04:19;;;;;;;3.85;1.95;;;;;;;;;;5021863;28;20603;-64
2022/08/23 06:06:47;;;;;;;4.25;1.98;;;;;;;;;;5022987;28;20639;-64
2022/08/23 06:09:15;;;;;;;4.03;2.08;;;;;;;;;;5023060;28;20037;-65
2022/08/23 06:11:43;;;;;;;3.97;1.75;;;;;;;;;;5021803;28;20080;-63
2022/08/23 06:14:09;;;;;;;6.45;1.95;;;;;;;;;;5022366;28;20045;-63
2022/08/23 06:16:38;;;;;;;4.50;2.03;;;;;;;;;;5039373;28;20044;-63
2022/08/23 06:19:05;;;;;;;6.32;2.13;;;;;;;;;;5035667;28;21754;-63
2022/08/23 06:21:32;;;;;;;5.28;2.10;;;;;;;;;;5040033;28;20039;-63
2022/08/23 06:23:59;;;;;;;3.78;1.80;;;;;;;;;;5022063;28;20045;-62
2022/08/23 06:26:30;;;;;;;4.70;2.10;;;;;;;;;;5023142;28;20041;-62
2022/08/23 06:28:57;;;;;;;5.25;2.17;;;;;;;;;;5023091;28;20037;-63
2022/08/23 06:31:44;;;;;;;4.80;2.15;;;;;;;;;;5020093;28;20036;-61
2022/08/23 06:34:31;;;;;;;4.65;2.08;;;;;;;;;;5022021;28;20128;-63
2022/08/23 06:36:59;;;;;;;7.10;2.10;;;;;;;;;;5021493;28;20033;-63
2022/08/23 06:39:27;;;;;;;4.68;2.05;;;;;;;;;;5021149;28;20426;-63
2022/08/23 06:41:59;;;;;;;4.75;1.98;;;;;;;;;;5020797;28;20102;-63
2022/08/23 06:44:26;;;;;;;4.70;1.88;;;;;;;;;;5020118;28;20041;-63
2022/08/23 06:46:55;;;;;;;3.58;1.90;;;;;;;;;;5020892;28;20060;-62
2022/08/23 06:49:22;;;;;;;4.55;1.92;;;;;;;;;;5018968;28;20050;-63
2022/08/23 06:51:50;;;;;;;5.00;2.13;;;;;;;;;;5020564;28;20042;-62
2022/08/23 06:54:19;;;;;;;7.25;2.40;;;;;;;;;;5020648;28;20041;-62
2022/08/23 06:56:45;;;;;;;4.78;2.03;;;;;;;;;;5020734;28;20037;-62
2022/08/23 06:59:12;;;;;;;4.72;2.22;;;;;;;;;;5019563;28;20136;-62
2022/08/23 07:01:46;;;;;;;4.65;2.25;;;;;;;;;;5019146;28;20052;-62
2022/08/23 07:04:14;;;;;;;4.57;1.90;;;;;;;;;;5020634;28;20052;-62
2022/08/23 07:06:41;;;;;;;4.88;2.10;;;;;;;;;;5020507;28;20046;-62
2022/08/23 07:09:07;;;;;;;4.30;2.13;;;;;;;;;;5020796;28;20509;-62
2022/08/23 07:11:34;;;;;;;5.30;2.13;;;;;;;;;;5019023;28;21704;-62
2022/08/23 07:14:02;;;;;;;4.82;2.10;;;;;;;;;;5016095;28;20034;-62
2022/08/23 07:16:33;;;;;;;3.80;1.90;;;;;;;;;;5019214;28;20057;-62
2022/08/23 07:18:59;;;;;;;4.68;2.28;;;;;;;;;;5019629;28;20065;-62
2022/08/23 07:21:26;;;;;;;4.90;2.10;;;;;;;;;;5019385;28;20049;-62
2022/08/23 07:23:53;;;;;;;4.25;2.10;;;;;;;;;;5020935;28;20071;-62
2022/08/23 07:26:21;;;;;;;4.53;2.05;;;;;;;;;;5019063;28;20060;-62
2022/08/23 07:28:48;;;;;;;4.00;2.10;;;;;;;;;;5020101;28;20118;-62
2022/08/23 07:31:14;;;;;;;4.30;1.80;;;;;;;;;;5019450;28;20037;-62
2022/08/23 07:33:41;;;;;;;5.43;2.10;;;;;;;;;;5020161;28;20046;-62
2022/08/23 07:36:08;;;;;;;3.90;1.98;;;;;;;;;;5019388;28;20125;-61
2022/08/23 07:38:35;;;;;;;4.60;2.00;;;;;;;;;;5018427;28;20076;-62
2022/08/23 07:41:02;;;;;;;3.40;1.60;;;;;;;;;;5021208;28;20034;-62
2022/08/23 07:43:30;;;;;;;5.70;2.03;;;;;;;;;;5020693;28;20037;-62
2022/08/23 07:45:56;;;;;;;3.70;1.80;;;;;;;;;;5020550;28;20041;-62
2022/08/23 07:48:23;;;;;;;3.70;1.63;;;;;;;;;;5020893;28;20044;-62
2022/08/23 07:50:54;;;;;;;4.75;1.80;;;;;;;;;;5021405;28;20044;-62
2022/08/23 07:53:21;;;;;;;5.82;1.60;;;;;;;;;;5021071;28;20036;-62
2022/08/23 07:55:47;;;;;;;4.03;1.67;;;;;;;;;;5021791;28;20033;-62
2022/08/23 07:58:14;;;;;;;3.53;1.48;;;;;;;;;;5018604;28;20053;-62
2022/08/23 08:00:41;;;;;;;3.65;1.30;;;;;;;;;;5020812;28;20116;-61
2022/08/23 08:03:08;;;;;;;3.42;1.50;;;;;;;;;;5021415;28;20045;-60
2022/08/23 08:05:35;;;;;;;3.30;1.40;;;;;;;;;;5019361;28;20069;-61
2022/08/23 08:08:03;;;;;;;4.22;1.40;;;;;;;;;;5019008;28;20060;-61
2022/08/23 08:10:30;;;;;;;3.22;1.30;;;;;;;;;;5019745;28;20037;-61
2022/08/23 08:12:56;;;;;;;3.20;1.15;;;;;;;;;;5019791;28;20037;-61
2022/08/23 08:15:23;;;;;;;3.30;1.20;;;;;;;;;;5018442;28;20155;-61
2022/08/23 08:17:50;;;;;;;3.10;1.40;;;;;;;;;;5018912;28;20165;-60
2022/08/23 08:20:18;;;;;;;4.88;1.40;;;;;;;;;;5019218;28;20042;-60
2022/08/23 08:22:46;;;;;;;3.25;1.42;;;;;;;;;;5019951;28;20072;-60
2022/08/23 08:25:13;;;;;;;2.97;1.30;;;;;;;;;;5021055;28;20041;-60
2022/08/23 08:27:40;;;;;;;4.20;1.60;;;;;;;;;;5036145;28;20033;-60
2022/08/23 08:30:08;;;;;;;3.85;1.42;;;;;;;;;;5019033;28;20479;-60
2022/08/23 08:32:35;;;;;;;7.93;2.65;;;;;;;;;;5022240;28;20475;-60
2022/08/23 08:35:01;;;;;;;3.92;1.73;;;;;;;;;;5024523;28;20500;-61
2022/08/23 08:37:29;;;;;;;3.50;1.40;;;;;;;;;;5023003;28;20041;-61
2022/08/23 08:39:55;;;;;;;3.30;1.50;;;;;;;;;;5021592;28;20105;-61
2022/08/23 08:42:32;;;;;;;3.60;1.60;;;;;;;;;;5023622;28;20506;-61
2022/08/23 08:45:05;;;;;;;3.35;1.40;;;;;;;;;;5024787;28;20090;-61
2022/08/23 08:47:32;;;;;;;4.07;1.70;;;;;;;;;;5022943;28;20120;-61
2022/08/23 08:50:01;;;;;;;4.00;1.65;;;;;;;;;;5021665;28;20188;-61
2022/08/23 08:52:33;;;;;;;3.45;1.45;;;;;;;;;;5022238;28;20159;-61
2022/08/23 08:55:02;;;;;;;4.53;1.65;;;;;;;;;;5022852;28;20041;-61
2022/08/23 08:57:32;;;;;;;3.08;1.55;;;;;;;;;;5022057;28;20049;-61
2022/08/23 09:00:01;;;;;;;3.67;1.70;;;;;;;;;;5023628;28;20045;-61
2022/08/23 09:02:31;;;;;;;3.80;1.52;;;;;;;;;;5022357;28;20045;-60
2022/08/23 09:04:58;;;;;;;3.47;1.65;;;;;;;;;;5023273;28;20452;-61
2022/08/23 09:07:27;;;;;;;3.30;1.40;;;;;;;;;;5023933;28;20069;-61
2022/08/23 09:10:03;;;;;;;4.10;1.90;;;;;;;;;;5023708;28;20060;-62
2022/08/23 09:12:48;;;;;;;3.58;1.75;;;;;;;;;;5022790;28;20072;-60
2022/08/23 09:15:21;;;;;;;7.15;1.75;;;;;;;;;;5023437;28;20174;-61
2022/08/23 09:17:53;;;;;;;7.32;2.03;;;;;;;;;;5022401;28;20056;-60
2022/08/23 09:20:21;;;;;;;3.80;1.63;;;;;;;;;;5022883;28;20063;-60
2022/08/23 09:22:57;;;;;;;3.83;1.80;;;;;;;;;;5022899;28;20029;-59
2022/08/23 09:25:24;;;;;;;3.30;1.55;;;;;;;;;;5021447;28;20100;-60
2022/08/23 09:27:50;;;;;;;3.55;1.65;;;;;;;;;;5024199;28;20045;-60
2022/08/23 09:30:18;;;;;;;4.30;1.60;;;;;;;;;;5023413;28;20041;-60
2022/08/23 09:32:47;;;;;;;5.63;1.83;;;;;;;;;;5025622;28;20045;-60
2022/08/23 09:35:18;;;;;;;3.78;1.90;;;;;;;;;;5026801;28;20042;-60
2022/08/23 09:37:51;;;;;;;5.53;1.80;;;;;;;;;;5022841;28;20057;-60
2022/08/23 09:40:37;;;;;;;4.18;1.67;;;;;;;;;;5023673;28;20041;-60
2022/08/23 09:43:07;;;;;;;4.15;1.70;;;;;;;;;;5023269;28;20521;-60
2022/08/23 09:45:37;;;;;;;3.75;1.88;;;;;;;;;;5023327;28;20042;-61
2022/08/23 09:48:05;;;;;;;4.00;2.10;;;;;;;;;;5023225;28;20410;-61
2022/08/23 09:50:38;;;;;;;3.95;1.67;;;;;;;;;;5022999;28;20404;-61
2022/08/23 09:53:12;;;;;;;3.55;1.75;;;;;;;;;;5022049;28;20216;-60
2022/08/23 09:55:41;;;;;;;4.35;1.90;;;;;;;;;;5031692;28;20041;-60
2022/08/23 09:58:20;;;;;;;6.00;2.20;;;;;;;;;;5037439;28;21021;-60
2022/08/23 10:01:00;;;;;;;4.65;1.70;;;;;;;;;;5040057;28;20069;-60
2022/08/23 10:03:29;;;;;;;4.45;1.98;;;;;;;;;;5041036;28;20063;-59
2022/08/23 10:05:57;;;;;;;3.80;1.80;;;;;;;;;;5041865;28;20041;-60
2022/08/23 10:08:27;;;;;;;5.65;2.00;;;;;;;;;;5040286;28;20045;-60
2022/08/23 10:10:56;;;;;;;3.70;1.75;;;;;;;;;;5040913;28;20037;-59
2022/08/23 10:13:23;;;;;;;4.38;1.90;;;;;;;;;;5041142;28;20207;-60
2022/08/23 10:15:59;;;;;;;4.88;2.00;;;;;;;;;;5040719;28;20091;-60
2022/08/23 10:18:28;;;;;;;3.80;1.98;;;;;;;;;;5040004;28;20056;-60
2022/08/23 10:21:04;;;;;;;4.00;2.00;;;;;;;;;;5025972;28;20033;-60
2022/08/23 10:23:47;;;;;;;4.47;1.98;;;;;;;;;;5019862;28;20091;-59
2022/08/23 10:26:34;;;;;;;5.32;1.92;;;;;;;;;;5020861;28;20119;-59
2022/08/23 10:32:22;;;;;;;4.03;1.77;;;;;;;;;;5013132;28;20060;-60
2022/08/23 10:35:08;;;;;;;4.00;2.00;;;;;;;;;;5017697;28;20067;-60
2022/08/23 10:37:42;;;;;;;4.80;2.17;;;;;;;;;;5020356;28;20041;-60
2022/08/23 10:40:30;;;;;;;5.80;2.40;;;;;;;;;;5020691;28;20040;-60
2022/08/23 10:43:12;;;;;;;6.60;2.20;;;;;;;;;;5021297;28;20045;-60
2022/08/23 10:45:41;;;;;;;6.63;2.33;;;;;;;;;;5020579;28;20037;-60
2022/08/23 10:48:07;;;;;;;4.68;2.22;;;;;;;;;;5021223;28;20037;-60
2022/08/23 10:50:41;;;;;;;9.70;2.55;;;;;;;;;;5021563;28;20045;-60
2022/08/23 10:53:10;;;;;;;4.90;2.33;;;;;;;;;;5020398;28;20075;-62
2022/08/23 10:58:26;;;;;;;4.60;2.30;;;;;;;;;;5019363;28;20068;-61
2022/08/23 11:00:53;;;;;;;4.88;2.55;;;;;;;;;;5021226;28;20045;-61
2022/08/23 11:03:25;;;;;;;5.43;2.42;;;;;;;;;;5021074;28;20118;-60
2022/08/23 11:06:10;;;;;;;5.93;2.30;;;;;;;;;;5038817;28;20089;-61
2022/08/23 11:08:44;;;;;;;5.85;3.20;;;;;;;;;;5021070;28;20041;-62
2022/08/23 11:11:31;;;;;;;5.88;2.53;;;;;;;;;;5021471;28;20087;-61
2022/08/23 11:13:57;;;;;;;5.38;2.58;;;;;;;;;;5015601;28;20048;-62
2022/08/23 11:16:28;;;;;;;5.80;3.13;;;;;;;;;;5020080;28;20057;-62
2022/08/23 11:18:54;;;;;;;5.50;3.08;;;;;;;;;;5020616;28;20060;-62
2022/08/23 11:21:30;;;;;;;4.93;2.58;;;;;;;;;;5034920;28;20564;-61
2022/08/23 11:23:57;;;;;;;5.60;2.65;;;;;;;;;;5017121;28;20053;-61
2022/08/23 11:26:36;;;;;;;5.43;2.80;;;;;;;;;;5035553;28;20049;-61
2022/08/23 11:29:06;;;;;;;5.80;3.15;;;;;;;;;;5038765;28;21727;-61
2022/08/23 11:31:39;;;;;;;5.63;3.15;;;;;;;;;;5020779;28;20116;-61
2022/08/23 11:34:26;;;;;;;6.72;3.00;;;;;;;;;;5018775;28;20104;-61
2022/08/23 11:37:12;;;;;;;5.65;2.67;;;;;;;;;;5031268;28;20037;-61
2022/08/23 11:40:06;;;;;;;6.50;3.05;;;;;;;;;;5036962;28;20052;-61
2022/08/23 11:42:52;;;;;;;6.32;2.90;;;;;;;;;;5037395;28;20072;-61
2022/08/23 11:45:27;;;;;;;4.40;2.42;;;;;;;;;;5041884;28;21773;-61
2022/08/23 11:48:12;;;;;;;4.97;2.95;;;;;;;;;;5039905;28;20970;-60
2022/08/23 11:50:58;;;;;;;5.03;2.63;;;;;;;;;;5039959;28;20045;-61
2022/08/23 11:53:30;;;;;;;5.75;3.28;;;;;;;;;;5041204;28;20119;-60
2022/08/23 11:56:16;;;;;;;4.90;2.97;;;;;;;;;;5040051;28;20041;-60
2022/08/23 11:58:57;;;;;;;6.15;2.90;;;;;;;;;;5039193;28;20293;-59
2022/08/23 12:01:32;;;;;;;6.90;3.17;;;;;;;;;;5039016;28;20055;-59
2022/08/23 12:04:07;;;;;;;5.15;2.90;;;;;;;;;;5043932;28;20077;-61
2022/08/23 12:06:39;;;;;;;5.15;2.80;;;;;;;;;;5043552;28;20040;-59
2022/08/23 12:09:11;;;;;;;7.33;3.50;;;;;;;;;;5046938;28;20048;-57
2022/08/23 12:11:53;;;;;;;5.47;3.03;;;;;;;;;;5043288;28;20048;-57
2022/08/23 12:14:32;;;;;;;7.05;2.90;;;;;;;;;;5043173;28;20157;-58
2022/08/23 12:16:59;;;;;;;6.97;3.03;;;;;;;;;;5041656;28;20064;-57
2022/08/23 12:19:33;;;;;;;6.65;3.47;;;;;;;;;;5042104;28;20163;-58
2022/08/23 12:22:06;;;;;;;6.78;3.00;;;;;;;;;;5045078;28;20049;-57
2022/08/23 12:24:40;;;;;;;4.77;2.80;;;;;;;;;;5042049;28;20048;-58
2022/08/23 12:27:12;;;;;;;8.43;3.15;;;;;;;;;;5044379;28;20317;-57
2022/08/23 12:29:57;;;;;;;5.43;3.17;;;;;;;;;;5044185;28;20132;-56
2022/08/23 12:32:33;;;;;;;6.70;3.33;;;;;;;;;;5043570;28;20049;-58
2022/08/23 12:35:02;;;;;;;5.95;3.50;;;;;;;;;;5044992;28;20048;-58
2022/08/23 12:37:47;;;;;;;6.80;3.80;;;;;;;;;;5043103;28;20076;-53
2022/08/23 12:40:21;;;;;;;7.75;3.30;;;;;;;;;;5044188;28;20045;-57
2022/08/23 12:42:50;;;;;;;5.93;3.15;;;;;;;;;;5043022;28;20040;-57
2022/08/23 12:45:19;;;;;;;9.82;3.42;;;;;;;;;;5043775;28;20055;-56
2022/08/23 12:47:56;;;;;;;6.55;3.03;;;;;;;;;;5042772;28;20052;-57
2022/08/23 12:50:33;;;;;;;6.82;3.00;;;;;;;;;;5044244;28;20095;-57
2022/08/23 12:53:19;;;;;;;5.50;3.00;;;;;;;;;;5040759;28;20041;-57
2022/08/23 12:55:48;;;;;;;8.40;3.22;;;;;;;;;;5029756;28;20517;-57
2022/08/23 12:58:16;;;;;;;5.30;3.03;;;;;;;;;;5041817;28;20040;-58
2022/08/23 13:00:52;;;;;;;8.25;4.18;;;;;;;;;;5020616;28;20028;-59
2022/08/23 13:03:21;;;;;;;8.30;3.75;;;;;;;;;;5023130;28;20064;-58
2022/08/23 13:05:55;;;;;;;6.63;3.53;;;;;;;;;;5022459;28;20045;-58
2022/08/23 13:08:25;;;;;;;8.35;3.63;;;;;;;;;;5020326;28;20068;-59
2022/08/23 13:10:52;;;;;;;6.63;3.10;;;;;;;;;;5020910;28;20121;-59
2022/08/23 13:13:21;;;;;;;6.55;3.35;;;;;;;;;;5022002;28;20037;-54
2022/08/23 13:15:59;;;;;;;7.50;3.15;;;;;;;;;;5022041;28;20068;-57
2022/08/23 13:18:25;;;;;;;5.47;3.15;;;;;;;;;;5019910;28;20116;-57
2022/08/23 13:21:10;;;;;;;6.20;3.40;;;;;;;;;;5021104;28;20572;-57
2022/08/23 13:23:37;;;;;;;7.28;3.75;;;;;;;;;;5023649;28;20812;-57
2022/08/23 13:26:22;;;;;;;10.20;3.67;;;;;;;;;;5022193;28;20051;-57
2022/08/23 13:29:10;;;;;;;5.28;2.80;;;;;;;;;;5022413;28;20505;-56
2022/08/23 13:31:55;;;;;;;6.15;3.42;;;;;;;;;;5022316;28;20072;-56
2022/08/23 13:34:32;;;;;;;6.00;3.08;;;;;;;;;;5021215;28;20102;-58
2022/08/23 13:36:59;;;;;;;7.22;3.20;;;;;;;;;;5023013;28;20042;-59
2022/08/23 13:39:27;;;;;;;7.75;3.25;;;;;;;;;;5020728;28;20053;-58
2022/08/23 13:41:54;;;;;;;5.75;3.08;;;;;;;;;;5022053;28;20034;-57
2022/08/23 13:44:21;;;;;;;5.97;3.38;;;;;;;;;;5020997;28;20060;-60
2022/08/23 13:46:48;;;;;;;6.22;3.30;;;;;;;;;;5021600;28;20091;-58
2022/08/23 13:49:20;;;;;;;5.97;3.22;;;;;;;;;;5021054;28;20041;-58
2022/08/23 13:51:58;;;;;;;5.35;3.20;;;;;;;;;;5020104;28;20041;-59
2022/08/23 13:54:25;;;;;;;7.10;3.65;;;;;;;;;;5045646;28;20118;-58
2022/08/23 13:56:57;;;;;;;7.25;3.70;;;;;;;;;;5041622;28;20163;-59
2022/08/23 13:59:29;;;;;;;8.20;3.97;;;;;;;;;;5039412;28;20040;-58
2022/08/23 14:01:56;;;;;;;7.10;3.92;;;;;;;;;;5041542;28;20052;-58
2022/08/23 14:04:23;;;;;;;6.63;3.72;;;;;;;;;;5039931;28;20452;-56
2022/08/23 14:06:49;;;;;;;7.15;3.67;;;;;;;;;;5041118;28;20378;-56
2022/08/23 14:09:16;;;;;;;7.65;3.95;;;;;;;;;;5039639;28;20094;-57
2022/08/23 14:11:43;;;;;;;5.82;3.80;;;;;;;;;;5030516;28;20075;-57
2022/08/23 14:14:10;;;;;;;6.65;4.10;;;;;;;;;;5040954;28;20037;-56
2022/08/23 14:16:37;;;;;;;8.52;4.20;;;;;;;;;;5038736;28;20051;-55
2022/08/23 14:19:05;;;;;;;11.25;4.18;;;;;;;;;;5018734;28;20046;-57
2022/08/23 14:21:32;;;;;;;8.55;4.10;;;;;;;;;;5020088;28;20036;-56
2022/08/23 14:23:58;;;;;;;8.10;4.00;;;;;;;;;;5021921;28;20470;-59
2022/08/23 14:26:25;;;;;;;7.97;3.85;;;;;;;;;;5021421;28;20918;-57
2022/08/23 14:28:52;;;;;;;6.80;3.78;;;;;;;;;;5019880;28;20051;-59
2022/08/23 14:31:19;;;;;;;5.88;3.60;;;;;;;;;;5019155;28;20040;-58
2022/08/23 14:33:46;;;;;;;6.10;3.70;;;;;;;;;;5019913;28;20532;-58
2022/08/23 14:36:13;;;;;;;7.13;3.65;;;;;;;;;;5019119;28;20030;-58
2022/08/23 14:38:40;;;;;;;6.57;3.40;;;;;;;;;;5019325;28;20083;-59
2022/08/23 14:41:08;;;;;;;7.45;3.60;;;;;;;;;;5021112;28;20075;-59
2022/08/23 14:43:38;;;;;;;7.25;3.70;;;;;;;;;;5021704;28;20045;-58
2022/08/23 14:46:05;;;;;;;6.68;3.80;;;;;;;;;;5021408;28;20111;-58
2022/08/23 14:48:32;;;;;;;8.60;4.10;;;;;;;;;;5019361;28;20129;-57
2022/08/23 14:50:58;;;;;;;5.75;3.63;;;;;;;;;;5020846;28;20033;-57
2022/08/23 14:53:29;;;;;;;7.22;3.75;;;;;;;;;;5019652;28;20065;-58
2022/08/23 14:55:55;;;;;;;5.35;3.28;;;;;;;;;;5020282;28;20390;-57
2022/08/23 14:58:23;;;;;;;7.40;3.85;;;;;;;;;;5037197;28;20061;-57
2022/08/23 15:00:52;;;;;;;7.32;3.45;;;;;;;;;;5021430;28;20565;-57
2022/08/23 15:03:27;;;;;;;5.43;3.13;;;;;;;;;;5021194;28;20079;-58
2022/08/23 15:05:53;;;;;;;7.05;3.08;;;;;;;;;;5028913;28;20107;-61
2022/08/23 15:08:22;;;;;;;5.70;3.20;;;;;;;;;;5019585;28;20052;-61
2022/08/23 15:10:53;;;;;;;5.22;2.95;;;;;;;;;;5022369;28;20053;-61
2022/08/23 15:13:21;;;;;;;5.30;2.78;;;;;;;;;;5020219;28;20433;-59